sensor_id;sensor_type;location;lat;lon;timestamp;temperature;humidity
39493;DHT22;25176;51.060;3.720;2023-04-25T00:00:15;11.90;90.80
39493;DHT22;25176;51.060;3.720;2023-04-25T00:02:42;12.00;90.80
39493;DHT22;25176;51.060;3.720;2023-04-25T00:05:07;12.00;90.50
39493;DHT22;25176;51.060;3.720;2023-04-25T00:07:33;12.00;90.60
39493;DHT22;25176;51.060;3.720;2023-04-25T00:09:59;11.90;90.70
39493;DHT22;25176;51.060;3.720;2023-04-25T00:12:24;11.90;90.90
39493;DHT22;25176;51.060;3.720;2023-04-25T00:14:50;11.80;90.90
39493;DHT22;25176;51.060;3.720;2023-04-25T00:17:16;11.90;90.90
39493;DHT22;25176;51.060;3.720;2023-04-25T00:19:42;11.90;91.00
39493;DHT22;25176;51.060;3.720;2023-04-25T00:22:10;12.00;90.90
39493;DHT22;25176;51.060;3.720;2023-04-25T00:24:36;12.00;90.90
39493;DHT22;25176;51.060;3.720;2023-04-25T00:27:01;11.90;90.80
39493;DHT22;25176;51.060;3.720;2023-04-25T00:29:27;11.80;90.90
39493;DHT22;25176;51.060;3.720;2023-04-25T00:31:52;11.80;90.90
39493;DHT22;25176;51.060;3.720;2023-04-25T00:34:17;11.80;91.30
39493;DHT22;25176;51.060;3.720;2023-04-25T00:36:43;11.70;91.20
39493;DHT22;25176;51.060;3.720;2023-04-25T00:39:08;11.70;90.90
39493;DHT22;25176;51.060;3.720;2023-04-25T00:41:34;11.60;91.00
39493;DHT22;25176;51.060;3.720;2023-04-25T00:44:00;11.70;91.10
39493;DHT22;25176;51.060;3.720;2023-04-25T00:46:26;11.70;90.70
39493;DHT22;25176;51.060;3.720;2023-04-25T00:48:51;11.70;91.00
39493;DHT22;25176;51.060;3.720;2023-04-25T00:51:19;11.80;91.00
39493;DHT22;25176;51.060;3.720;2023-04-25T00:53:44;12.00;90.90
39493;DHT22;25176;51.060;3.720;2023-04-25T00:56:10;12.00;90.80
39493;DHT22;25176;51.060;3.720;2023-04-25T00:58:35;12.00;90.70
39493;DHT22;25176;51.060;3.720;2023-04-25T01:01:01;12.00;90.70
39493;DHT22;25176;51.060;3.720;2023-04-25T01:03:27;12.00;90.70
39493;DHT22;25176;51.060;3.720;2023-04-25T01:05:54;12.00;90.60
39493;DHT22;25176;51.060;3.720;2023-04-25T01:08:21;12.00;90.80
39493;DHT22;25176;51.060;3.720;2023-04-25T01:10:48;12.00;90.90
39493;DHT22;25176;51.060;3.720;2023-04-25T01:13:14;11.80;91.00
39493;DHT22;25176;51.060;3.720;2023-04-25T01:15:39;11.60;91.10
39493;DHT22;25176;51.060;3.720;2023-04-25T01:18:05;11.50;91.00
39493;DHT22;25176;51.060;3.720;2023-04-25T01:20:31;11.30;91.50
39493;DHT22;25176;51.060;3.720;2023-04-25T01:22:57;11.50;91.60
39493;DHT22;25176;51.060;3.720;2023-04-25T01:25:23;11.60;91.50
39493;DHT22;25176;51.060;3.720;2023-04-25T01:27:48;11.40;91.50
39493;DHT22;25176;51.060;3.720;2023-04-25T01:30:14;11.40;91.50
39493;DHT22;25176;51.060;3.720;2023-04-25T01:32:40;11.50;91.80
39493;DHT22;25176;51.060;3.720;2023-04-25T01:35:07;11.50;92.10
39493;DHT22;25176;51.060;3.720;2023-04-25T01:40:03;11.60;91.60
39493;DHT22;25176;51.060;3.720;2023-04-25T01:42:31;11.60;91.40
39493;DHT22;25176;51.060;3.720;2023-04-25T01:44:56;11.60;91.60
39493;DHT22;25176;51.060;3.720;2023-04-25T01:47:22;11.60;91.10
39493;DHT22;25176;51.060;3.720;2023-04-25T01:49:47;11.40;91.20
39493;DHT22;25176;51.060;3.720;2023-04-25T01:52:13;11.40;91.80
39493;DHT22;25176;51.060;3.720;2023-04-25T01:54:39;11.20;91.50
39493;DHT22;25176;51.060;3.720;2023-04-25T01:57:09;11.00;91.80
39493;DHT22;25176;51.060;3.720;2023-04-25T01:59:35;11.00;92.10
39493;DHT22;25176;51.060;3.720;2023-04-25T02:02:00;11.20;91.90
39493;DHT22;25176;51.060;3.720;2023-04-25T02:04:29;11.10;91.80
39493;DHT22;25176;51.060;3.720;2023-04-25T02:06:54;11.10;91.60
39493;DHT22;25176;51.060;3.720;2023-04-25T02:09:20;11.20;92.00
39493;DHT22;25176;51.060;3.720;2023-04-25T02:11:45;11.20;91.90
39493;DHT22;25176;51.060;3.720;2023-04-25T02:14:11;11.00;91.70
39493;DHT22;25176;51.060;3.720;2023-04-25T02:16:36;11.00;91.90
39493;DHT22;25176;51.060;3.720;2023-04-25T02:19:02;11.10;92.00
39493;DHT22;25176;51.060;3.720;2023-04-25T02:21:28;11.10;91.70
39493;DHT22;25176;51.060;3.720;2023-04-25T02:23:53;11.10;91.80
39493;DHT22;25176;51.060;3.720;2023-04-25T02:26:19;11.20;91.50
39493;DHT22;25176;51.060;3.720;2023-04-25T02:28:44;11.00;91.80
39493;DHT22;25176;51.060;3.720;2023-04-25T02:31:10;10.80;92.00
39493;DHT22;25176;51.060;3.720;2023-04-25T02:33:36;10.90;92.30
39493;DHT22;25176;51.060;3.720;2023-04-25T02:36:01;10.80;92.20
39493;DHT22;25176;51.060;3.720;2023-04-25T02:38:27;10.90;92.20
39493;DHT22;25176;51.060;3.720;2023-04-25T02:40:52;10.90;91.90
39493;DHT22;25176;51.060;3.720;2023-04-25T02:43:17;10.80;92.40
39493;DHT22;25176;51.060;3.720;2023-04-25T02:45:43;10.90;92.30
39493;DHT22;25176;51.060;3.720;2023-04-25T02:48:08;11.00;92.10
39493;DHT22;25176;51.060;3.720;2023-04-25T02:50:34;11.00;91.70
39493;DHT22;25176;51.060;3.720;2023-04-25T02:52:59;10.90;91.70
39493;DHT22;25176;51.060;3.720;2023-04-25T02:55:25;10.70;91.70
39493;DHT22;25176;51.060;3.720;2023-04-25T02:57:51;10.50;92.10
39493;DHT22;25176;51.060;3.720;2023-04-25T03:00:16;10.40;92.20
39493;DHT22;25176;51.060;3.720;2023-04-25T03:02:42;10.40;92.10
39493;DHT22;25176;51.060;3.720;2023-04-25T03:05:07;10.50;92.50
39493;DHT22;25176;51.060;3.720;2023-04-25T03:07:33;10.40;92.30
39493;DHT22;25176;51.060;3.720;2023-04-25T03:09:58;10.40;92.20
39493;DHT22;25176;51.060;3.720;2023-04-25T03:12:24;10.30;92.50
39493;DHT22;25176;51.060;3.720;2023-04-25T03:14:49;10.50;92.40
39493;DHT22;25176;51.060;3.720;2023-04-25T03:17:15;10.30;92.10
39493;DHT22;25176;51.060;3.720;2023-04-25T03:19:41;10.40;92.10
39493;DHT22;25176;51.060;3.720;2023-04-25T03:22:06;10.40;91.90
39493;DHT22;25176;51.060;3.720;2023-04-25T03:24:32;10.40;92.10
39493;DHT22;25176;51.060;3.720;2023-04-25T03:26:57;10.40;91.60
39493;DHT22;25176;51.060;3.720;2023-04-25T03:29:23;10.30;91.50
39493;DHT22;25176;51.060;3.720;2023-04-25T03:31:50;10.30;91.60
39493;DHT22;25176;51.060;3.720;2023-04-25T03:34:16;10.40;91.70
39493;DHT22;25176;51.060;3.720;2023-04-25T03:36:41;10.20;91.80
39493;DHT22;25176;51.060;3.720;2023-04-25T03:39:07;10.00;91.80
39493;DHT22;25176;51.060;3.720;2023-04-25T03:41:32;10.00;91.60
39493;DHT22;25176;51.060;3.720;2023-04-25T03:43:58;10.00;91.60
39493;DHT22;25176;51.060;3.720;2023-04-25T03:46:23;10.10;91.20
39493;DHT22;25176;51.060;3.720;2023-04-25T03:48:49;10.20;91.20
39493;DHT22;25176;51.060;3.720;2023-04-25T03:51:15;10.30;90.70
39493;DHT22;25176;51.060;3.720;2023-04-25T03:53:40;10.40;90.80
39493;DHT22;25176;51.060;3.720;2023-04-25T03:56:06;10.40;90.30
39493;DHT22;25176;51.060;3.720;2023-04-25T03:58:31;10.50;90.10
39493;DHT22;25176;51.060;3.720;2023-04-25T04:00:57;10.60;89.30
39493;DHT22;25176;51.060;3.720;2023-04-25T04:03:23;10.40;88.70
39493;DHT22;25176;51.060;3.720;2023-04-25T04:05:48;10.10;89.20
39493;DHT22;25176;51.060;3.720;2023-04-25T04:08:14;10.10;90.10
39493;DHT22;25176;51.060;3.720;2023-04-25T04:10:39;10.00;90.00
39493;DHT22;25176;51.060;3.720;2023-04-25T04:13:05;10.00;90.00
39493;DHT22;25176;51.060;3.720;2023-04-25T04:15:30;9.90;90.10
39493;DHT22;25176;51.060;3.720;2023-04-25T04:17:58;9.90;90.30
39493;DHT22;25176;51.060;3.720;2023-04-25T04:20:28;10.00;90.10
39493;DHT22;25176;51.060;3.720;2023-04-25T04:22:53;10.10;89.60
39493;DHT22;25176;51.060;3.720;2023-04-25T04:25:18;10.20;89.30
39493;DHT22;25176;51.060;3.720;2023-04-25T04:27:44;10.30;89.50
39493;DHT22;25176;51.060;3.720;2023-04-25T04:30:11;10.20;89.20
39493;DHT22;25176;51.060;3.720;2023-04-25T04:32:37;10.20;89.10
39493;DHT22;25176;51.060;3.720;2023-04-25T04:35:03;10.30;89.20
39493;DHT22;25176;51.060;3.720;2023-04-25T04:37:29;10.30;89.50
39493;DHT22;25176;51.060;3.720;2023-04-25T04:39:55;10.30;89.80
39493;DHT22;25176;51.060;3.720;2023-04-25T04:42:21;10.40;89.80
39493;DHT22;25176;51.060;3.720;2023-04-25T04:44:46;10.50;89.70
39493;DHT22;25176;51.060;3.720;2023-04-25T04:47:12;10.60;89.00
39493;DHT22;25176;51.060;3.720;2023-04-25T04:49:39;10.70;89.10
39493;DHT22;25176;51.060;3.720;2023-04-25T04:52:05;10.60;89.40
39493;DHT22;25176;51.060;3.720;2023-04-25T04:54:30;10.60;89.00
39493;DHT22;25176;51.060;3.720;2023-04-25T04:56:56;10.70;89.20
39493;DHT22;25176;51.060;3.720;2023-04-25T04:59:21;10.70;88.70
39493;DHT22;25176;51.060;3.720;2023-04-25T05:01:47;10.70;88.90
39493;DHT22;25176;51.060;3.720;2023-04-25T05:04:12;10.70;88.60
39493;DHT22;25176;51.060;3.720;2023-04-25T05:06:38;10.70;88.30
39493;DHT22;25176;51.060;3.720;2023-04-25T05:09:03;10.80;88.30
39493;DHT22;25176;51.060;3.720;2023-04-25T05:11:29;10.80;88.70
39493;DHT22;25176;51.060;3.720;2023-04-25T05:13:55;10.80;88.70
39493;DHT22;25176;51.060;3.720;2023-04-25T05:16:20;10.80;89.00
39493;DHT22;25176;51.060;3.720;2023-04-25T05:18:46;10.80;88.50
39493;DHT22;25176;51.060;3.720;2023-04-25T05:21:12;10.80;88.10
39493;DHT22;25176;51.060;3.720;2023-04-25T05:23:37;10.90;88.50
39493;DHT22;25176;51.060;3.720;2023-04-25T05:26:03;10.90;88.50
39493;DHT22;25176;51.060;3.720;2023-04-25T05:28:28;10.80;88.20
39493;DHT22;25176;51.060;3.720;2023-04-25T05:30:54;10.80;88.40
39493;DHT22;25176;51.060;3.720;2023-04-25T05:33:19;11.00;88.60
39493;DHT22;25176;51.060;3.720;2023-04-25T05:35:45;11.00;87.90
39493;DHT22;25176;51.060;3.720;2023-04-25T05:38:11;11.20;87.40
39493;DHT22;25176;51.060;3.720;2023-04-25T05:40:37;11.10;86.60
39493;DHT22;25176;51.060;3.720;2023-04-25T05:43:02;11.20;86.80
39493;DHT22;25176;51.060;3.720;2023-04-25T05:45:28;10.90;85.90
39493;DHT22;25176;51.060;3.720;2023-04-25T05:47:53;10.70;86.30
39493;DHT22;25176;51.060;3.720;2023-04-25T05:50:19;10.40;86.80
39493;DHT22;25176;51.060;3.720;2023-04-25T05:53:00;10.50;87.80
39493;DHT22;25176;51.060;3.720;2023-04-25T05:55:26;10.50;87.40
39493;DHT22;25176;51.060;3.720;2023-04-25T05:57:52;10.70;87.50
39493;DHT22;25176;51.060;3.720;2023-04-25T06:00:18;10.70;87.30
39493;DHT22;25176;51.060;3.720;2023-04-25T06:02:44;11.00;87.00
39493;DHT22;25176;51.060;3.720;2023-04-25T06:05:09;11.00;85.60
39493;DHT22;25176;51.060;3.720;2023-04-25T06:07:35;11.00;86.00
39493;DHT22;25176;51.060;3.720;2023-04-25T06:10:01;10.90;87.00
39493;DHT22;25176;51.060;3.720;2023-04-25T06:12:32;11.10;85.10
39493;DHT22;25176;51.060;3.720;2023-04-25T06:18:01;11.00;85.60
39493;DHT22;25176;51.060;3.720;2023-04-25T06:20:26;11.30;85.00
39493;DHT22;25176;51.060;3.720;2023-04-25T06:22:54;11.50;84.70
39493;DHT22;25176;51.060;3.720;2023-04-25T06:25:32;11.80;83.60
39493;DHT22;25176;51.060;3.720;2023-04-25T06:27:58;11.60;83.70
39493;DHT22;25176;51.060;3.720;2023-04-25T06:33:28;11.80;82.50
39493;DHT22;25176;51.060;3.720;2023-04-25T06:35:55;12.00;83.00
39493;DHT22;25176;51.060;3.720;2023-04-25T06:38:21;11.90;82.00
39493;DHT22;25176;51.060;3.720;2023-04-25T06:40:46;11.80;81.20
39493;DHT22;25176;51.060;3.720;2023-04-25T06:43:12;11.50;82.10
39493;DHT22;25176;51.060;3.720;2023-04-25T06:45:50;11.30;82.20
39493;DHT22;25176;51.060;3.720;2023-04-25T06:48:36;11.20;83.20
39493;DHT22;25176;51.060;3.720;2023-04-25T06:54:13;11.50;82.40
39493;DHT22;25176;51.060;3.720;2023-04-25T06:56:39;11.80;82.30
39493;DHT22;25176;51.060;3.720;2023-04-25T06:59:05;12.30;81.80
39493;DHT22;25176;51.060;3.720;2023-04-25T07:01:30;12.40;79.90
39493;DHT22;25176;51.060;3.720;2023-04-25T07:04:03;12.50;80.10
39493;DHT22;25176;51.060;3.720;2023-04-25T07:06:51;12.90;80.00
39493;DHT22;25176;51.060;3.720;2023-04-25T07:09:56;13.00;78.30
39493;DHT22;25176;51.060;3.720;2023-04-25T07:12:36;13.20;78.10
39493;DHT22;25176;51.060;3.720;2023-04-25T07:15:07;13.00;78.60
39493;DHT22;25176;51.060;3.720;2023-04-25T07:20:57;15.90;75.40
39493;DHT22;25176;51.060;3.720;2023-04-25T07:23:58;19.70;69.40
39493;DHT22;25176;51.060;3.720;2023-04-25T07:26:23;22.20;60.70
39493;DHT22;25176;51.060;3.720;2023-04-25T07:28:50;20.60;59.20
39493;DHT22;25176;51.060;3.720;2023-04-25T07:31:23;20.10;62.10
39493;DHT22;25176;51.060;3.720;2023-04-25T07:33:53;20.40;59.90
39493;DHT22;25176;51.060;3.720;2023-04-25T07:36:24;18.20;60.70
39493;DHT22;25176;51.060;3.720;2023-04-25T07:39:21;18.20;61.90
39493;DHT22;25176;51.060;3.720;2023-04-25T07:42:31;18.50;61.50
39493;DHT22;25176;51.060;3.720;2023-04-25T07:45:16;20.10;59.40
39493;DHT22;25176;51.060;3.720;2023-04-25T07:47:41;21.30;57.20
39493;DHT22;25176;51.060;3.720;2023-04-25T07:53:16;22.50;52.60
39493;DHT22;25176;51.060;3.720;2023-04-25T07:56:08;21.80;53.00
39493;DHT22;25176;51.060;3.720;2023-04-25T07:58:56;22.40;53.00
39493;DHT22;25176;51.060;3.720;2023-04-25T08:01:23;24.90;51.70
39493;DHT22;25176;51.060;3.720;2023-04-25T08:04:06;26.20;49.20
39493;DHT22;25176;51.060;3.720;2023-04-25T08:06:54;24.60;46.90
39493;DHT22;25176;51.060;3.720;2023-04-25T08:09:28;21.80;50.00
39493;DHT22;25176;51.060;3.720;2023-04-25T08:11:59;21.40;51.50
39493;DHT22;25176;51.060;3.720;2023-04-25T08:14:33;19.90;53.50
39493;DHT22;25176;51.060;3.720;2023-04-25T08:17:23;18.90;55.70
39493;DHT22;25176;51.060;3.720;2023-04-25T08:19:49;18.60;57.00
39493;DHT22;25176;51.060;3.720;2023-04-25T08:22:17;18.10;57.80
39493;DHT22;25176;51.060;3.720;2023-04-25T08:25:02;17.20;59.00
39493;DHT22;25176;51.060;3.720;2023-04-25T08:27:40;17.00;59.00
39493;DHT22;25176;51.060;3.720;2023-04-25T08:33:15;19.30;55.30
39493;DHT22;25176;51.060;3.720;2023-04-25T08:35:41;20.50;51.90
39493;DHT22;25176;51.060;3.720;2023-04-25T08:38:15;20.70;49.90
39493;DHT22;25176;51.060;3.720;2023-04-25T08:40:57;22.10;49.60
39493;DHT22;25176;51.060;3.720;2023-04-25T08:43:24;26.70;46.00
39493;DHT22;25176;51.060;3.720;2023-04-25T08:45:50;27.90;41.20
39493;DHT22;25176;51.060;3.720;2023-04-25T08:48:18;28.00;41.50
39493;DHT22;25176;51.060;3.720;2023-04-25T08:50:54;25.70;42.20
39493;DHT22;25176;51.060;3.720;2023-04-25T08:53:31;24.20;43.80
39493;DHT22;25176;51.060;3.720;2023-04-25T08:55:57;24.20;44.40
39493;DHT22;25176;51.060;3.720;2023-04-25T08:58:23;25.90;43.60
39493;DHT22;25176;51.060;3.720;2023-04-25T09:00:49;28.40;40.50
39493;DHT22;25176;51.060;3.720;2023-04-25T09:03:15;26.20;40.10
39493;DHT22;25176;51.060;3.720;2023-04-25T09:05:41;23.30;42.60
39493;DHT22;25176;51.060;3.720;2023-04-25T09:08:07;21.90;44.70
39493;DHT22;25176;51.060;3.720;2023-04-25T09:10:33;19.60;47.70
39493;DHT22;25176;51.060;3.720;2023-04-25T09:13:03;18.50;52.70
39493;DHT22;25176;51.060;3.720;2023-04-25T09:15:32;17.00;58.30
39493;DHT22;25176;51.060;3.720;2023-04-25T09:17:58;16.20;61.30
39493;DHT22;25176;51.060;3.720;2023-04-25T09:20:25;16.10;63.50
39493;DHT22;25176;51.060;3.720;2023-04-25T09:23:06;15.90;63.30
39493;DHT22;25176;51.060;3.720;2023-04-25T09:25:35;15.60;62.90
39493;DHT22;25176;51.060;3.720;2023-04-25T09:28:05;14.70;65.00
39493;DHT22;25176;51.060;3.720;2023-04-25T09:30:35;13.80;66.80
39493;DHT22;25176;51.060;3.720;2023-04-25T09:33:08;13.60;67.90
39493;DHT22;25176;51.060;3.720;2023-04-25T09:35:37;13.50;67.50
39493;DHT22;25176;51.060;3.720;2023-04-25T09:38:07;13.30;67.80
39493;DHT22;25176;51.060;3.720;2023-04-25T09:40:33;13.50;68.00
39493;DHT22;25176;51.060;3.720;2023-04-25T09:42:59;14.00;66.80
39493;DHT22;25176;51.060;3.720;2023-04-25T09:45:26;15.90;63.90
39493;DHT22;25176;51.060;3.720;2023-04-25T09:47:55;18.40;58.30
39493;DHT22;25176;51.060;3.720;2023-04-25T09:50:24;19.70;54.40
39493;DHT22;25176;51.060;3.720;2023-04-25T09:53:10;19.60;53.40
39493;DHT22;25176;51.060;3.720;2023-04-25T09:56:16;19.80;53.00
39493;DHT22;25176;51.060;3.720;2023-04-25T09:59:24;20.70;52.00
39493;DHT22;25176;51.060;3.720;2023-04-25T10:01:52;20.60;50.60
39493;DHT22;25176;51.060;3.720;2023-04-25T10:04:21;18.80;51.80
39493;DHT22;25176;51.060;3.720;2023-04-25T10:06:48;18.50;53.50
39493;DHT22;25176;51.060;3.720;2023-04-25T10:09:14;18.00;54.00
39493;DHT22;25176;51.060;3.720;2023-04-25T10:11:41;17.40;54.20
39493;DHT22;25176;51.060;3.720;2023-04-25T10:14:06;17.50;56.50
39493;DHT22;25176;51.060;3.720;2023-04-25T10:16:32;19.40;53.90
39493;DHT22;25176;51.060;3.720;2023-04-25T10:18:58;20.20;52.80
39493;DHT22;25176;51.060;3.720;2023-04-25T10:21:24;20.60;51.20
39493;DHT22;25176;51.060;3.720;2023-04-25T10:24:15;21.00;51.30
39493;DHT22;25176;51.060;3.720;2023-04-25T10:26:41;20.80;50.60
39493;DHT22;25176;51.060;3.720;2023-04-25T10:29:07;18.40;52.60
39493;DHT22;25176;51.060;3.720;2023-04-25T10:31:47;16.70;56.30
39493;DHT22;25176;51.060;3.720;2023-04-25T10:34:48;15.80;58.80
39493;DHT22;25176;51.060;3.720;2023-04-25T10:37:17;15.20;60.70
39493;DHT22;25176;51.060;3.720;2023-04-25T10:39:53;15.10;62.80
39493;DHT22;25176;51.060;3.720;2023-04-25T10:42:20;14.90;61.70
39493;DHT22;25176;51.060;3.720;2023-04-25T10:45:02;15.50;60.90
39493;DHT22;25176;51.060;3.720;2023-04-25T10:47:34;15.70;60.20
39493;DHT22;25176;51.060;3.720;2023-04-25T10:50:06;15.40;61.70
39493;DHT22;25176;51.060;3.720;2023-04-25T10:52:38;15.50;60.30
39493;DHT22;25176;51.060;3.720;2023-04-25T10:55:05;15.80;59.70
39493;DHT22;25176;51.060;3.720;2023-04-25T10:57:34;15.40;59.90
39493;DHT22;25176;51.060;3.720;2023-04-25T11:02:46;15.50;60.30
39493;DHT22;25176;51.060;3.720;2023-04-25T11:05:16;16.30;59.50
39493;DHT22;25176;51.060;3.720;2023-04-25T11:07:47;17.10;58.50
39493;DHT22;25176;51.060;3.720;2023-04-25T11:10:14;17.80;56.60
39493;DHT22;25176;51.060;3.720;2023-04-25T11:12:40;17.30;54.20
39493;DHT22;25176;51.060;3.720;2023-04-25T11:15:06;17.30;54.00
39493;DHT22;25176;51.060;3.720;2023-04-25T11:17:32;16.50;55.80
39493;DHT22;25176;51.060;3.720;2023-04-25T11:20:00;15.40;57.20
39493;DHT22;25176;51.060;3.720;2023-04-25T11:22:27;15.30;58.00
39493;DHT22;25176;51.060;3.720;2023-04-25T11:24:53;15.50;57.80
39493;DHT22;25176;51.060;3.720;2023-04-25T11:27:22;15.20;56.50
39493;DHT22;25176;51.060;3.720;2023-04-25T11:29:50;15.30;56.30
39493;DHT22;25176;51.060;3.720;2023-04-25T11:32:17;15.50;55.60
39493;DHT22;25176;51.060;3.720;2023-04-25T11:34:43;15.60;54.50
39493;DHT22;25176;51.060;3.720;2023-04-25T11:37:09;16.10;55.70
39493;DHT22;25176;51.060;3.720;2023-04-25T11:39:37;16.50;55.20
39493;DHT22;25176;51.060;3.720;2023-04-25T11:42:05;16.40;55.90
39493;DHT22;25176;51.060;3.720;2023-04-25T11:44:31;16.20;56.30
39493;DHT22;25176;51.060;3.720;2023-04-25T11:46:57;16.30;57.50
39493;DHT22;25176;51.060;3.720;2023-04-25T11:49:24;17.10;56.80
39493;DHT22;25176;51.060;3.720;2023-04-25T11:51:55;17.10;56.20
39493;DHT22;25176;51.060;3.720;2023-04-25T11:54:21;16.60;56.90
39493;DHT22;25176;51.060;3.720;2023-04-25T11:56:47;15.60;57.90
39493;DHT22;25176;51.060;3.720;2023-04-25T11:59:13;15.50;57.10
39493;DHT22;25176;51.060;3.720;2023-04-25T12:01:40;15.00;56.40
39493;DHT22;25176;51.060;3.720;2023-04-25T12:06:41;15.10;57.90
39493;DHT22;25176;51.060;3.720;2023-04-25T12:09:08;15.40;58.20
39493;DHT22;25176;51.060;3.720;2023-04-25T12:12:09;15.50;57.50
39493;DHT22;25176;51.060;3.720;2023-04-25T12:14:31;15.90;57.10
39493;DHT22;25176;51.060;3.720;2023-04-25T12:16:58;15.90;57.40
39493;DHT22;25176;51.060;3.720;2023-04-25T12:19:24;15.40;58.00
39493;DHT22;25176;51.060;3.720;2023-04-25T12:21:50;15.50;58.60
39493;DHT22;25176;51.060;3.720;2023-04-25T12:24:23;15.00;59.10
39493;DHT22;25176;51.060;3.720;2023-04-25T12:27:08;15.00;58.00
39493;DHT22;25176;51.060;3.720;2023-04-25T12:29:34;15.00;57.00
39493;DHT22;25176;51.060;3.720;2023-04-25T12:32:01;14.80;57.60
39493;DHT22;25176;51.060;3.720;2023-04-25T12:34:29;15.20;57.50
39493;DHT22;25176;51.060;3.720;2023-04-25T12:36:57;15.20;56.70
39493;DHT22;25176;51.060;3.720;2023-04-25T12:39:38;15.70;56.10
39493;DHT22;25176;51.060;3.720;2023-04-25T12:42:26;15.80;56.40
39493;DHT22;25176;51.060;3.720;2023-04-25T12:44:57;15.80;56.10
39493;DHT22;25176;51.060;3.720;2023-04-25T12:47:23;15.60;57.00
39493;DHT22;25176;51.060;3.720;2023-04-25T12:49:49;15.90;57.80
39493;DHT22;25176;51.060;3.720;2023-04-25T12:52:15;15.40;59.20
39493;DHT22;25176;51.060;3.720;2023-04-25T12:54:42;15.30;59.80
39493;DHT22;25176;51.060;3.720;2023-04-25T12:57:08;15.20;60.20
39493;DHT22;25176;51.060;3.720;2023-04-25T12:59:36;14.90;59.90
39493;DHT22;25176;51.060;3.720;2023-04-25T13:02:22;14.50;60.50
39493;DHT22;25176;51.060;3.720;2023-04-25T13:05:15;14.40;61.30
39493;DHT22;25176;51.060;3.720;2023-04-25T13:07:41;14.90;60.30
39493;DHT22;25176;51.060;3.720;2023-04-25T13:10:06;15.10;60.00
39493;DHT22;25176;51.060;3.720;2023-04-25T13:12:32;15.20;59.50
39493;DHT22;25176;51.060;3.720;2023-04-25T13:21:09;15.20;60.40
39493;DHT22;25176;51.060;3.720;2023-04-25T13:23:35;15.30;59.80
39493;DHT22;25176;51.060;3.720;2023-04-25T13:26:02;15.40;60.30
39493;DHT22;25176;51.060;3.720;2023-04-25T13:28:28;15.30;61.60
39493;DHT22;25176;51.060;3.720;2023-04-25T13:30:54;14.90;62.10
39493;DHT22;25176;51.060;3.720;2023-04-25T13:33:22;14.70;61.80
39493;DHT22;25176;51.060;3.720;2023-04-25T13:35:53;14.30;63.00
39493;DHT22;25176;51.060;3.720;2023-04-25T13:38:21;14.00;64.70
39493;DHT22;25176;51.060;3.720;2023-04-25T13:40:51;14.00;65.10
39493;DHT22;25176;51.060;3.720;2023-04-25T13:43:20;14.00;64.40
39493;DHT22;25176;51.060;3.720;2023-04-25T13:45:47;14.00;63.20
39493;DHT22;25176;51.060;3.720;2023-04-25T13:48:17;14.00;61.20
39493;DHT22;25176;51.060;3.720;2023-04-25T13:51:13;14.30;61.80
39493;DHT22;25176;51.060;3.720;2023-04-25T13:53:38;14.40;61.60
39493;DHT22;25176;51.060;3.720;2023-04-25T13:56:04;14.80;61.00
39493;DHT22;25176;51.060;3.720;2023-04-25T13:58:30;15.00;60.30
39493;DHT22;25176;51.060;3.720;2023-04-25T14:04:09;15.30;59.40
39493;DHT22;25176;51.060;3.720;2023-04-25T14:06:51;15.70;58.40
39493;DHT22;25176;51.060;3.720;2023-04-25T14:09:48;15.80;57.90
39493;DHT22;25176;51.060;3.720;2023-04-25T14:12:21;16.10;57.10
39493;DHT22;25176;51.060;3.720;2023-04-25T14:17:22;15.90;56.70
39493;DHT22;25176;51.060;3.720;2023-04-25T14:19:49;15.80;56.40
39493;DHT22;25176;51.060;3.720;2023-04-25T14:22:15;15.90;56.60
39493;DHT22;25176;51.060;3.720;2023-04-25T14:24:40;15.90;56.60
39493;DHT22;25176;51.060;3.720;2023-04-25T14:27:06;15.50;56.90
39493;DHT22;25176;51.060;3.720;2023-04-25T14:29:32;15.30;57.10
39493;DHT22;25176;51.060;3.720;2023-04-25T14:31:58;15.20;57.50
39493;DHT22;25176;51.060;3.720;2023-04-25T14:34:24;14.60;58.00
39493;DHT22;25176;51.060;3.720;2023-04-25T14:36:51;14.00;59.60
39493;DHT22;25176;51.060;3.720;2023-04-25T14:39:16;14.00;58.90
39493;DHT22;25176;51.060;3.720;2023-04-25T14:41:42;14.10;59.10
39493;DHT22;25176;51.060;3.720;2023-04-25T14:44:08;14.20;57.70
39493;DHT22;25176;51.060;3.720;2023-04-25T14:46:33;14.30;57.20
39493;DHT22;25176;51.060;3.720;2023-04-25T14:48:59;14.10;57.20
39493;DHT22;25176;51.060;3.720;2023-04-25T14:51:25;14.10;58.80
39493;DHT22;25176;51.060;3.720;2023-04-25T14:53:51;14.30;58.60
39493;DHT22;25176;51.060;3.720;2023-04-25T14:56:17;14.30;57.80
39493;DHT22;25176;51.060;3.720;2023-04-25T14:58:43;14.00;59.00
39493;DHT22;25176;51.060;3.720;2023-04-25T15:01:11;14.00;58.90
39493;DHT22;25176;51.060;3.720;2023-04-25T15:03:36;14.10;59.00
39493;DHT22;25176;51.060;3.720;2023-04-25T15:06:02;14.40;59.10
39493;DHT22;25176;51.060;3.720;2023-04-25T15:08:28;14.50;58.90
39493;DHT22;25176;51.060;3.720;2023-04-25T15:10:53;14.50;58.80
39493;DHT22;25176;51.060;3.720;2023-04-25T15:13:19;14.10;59.30
39493;DHT22;25176;51.060;3.720;2023-04-25T15:15:45;13.80;59.70
39493;DHT22;25176;51.060;3.720;2023-04-25T15:18:16;13.70;59.40
39493;DHT22;25176;51.060;3.720;2023-04-25T15:20:42;13.60;59.60
39493;DHT22;25176;51.060;3.720;2023-04-25T15:23:07;13.70;59.10
39493;DHT22;25176;51.060;3.720;2023-04-25T15:25:36;13.80;59.30
39493;DHT22;25176;51.060;3.720;2023-04-25T15:28:02;14.00;59.20
39493;DHT22;25176;51.060;3.720;2023-04-25T15:30:28;14.00;59.40
39493;DHT22;25176;51.060;3.720;2023-04-25T15:32:53;14.00;60.10
39493;DHT22;25176;51.060;3.720;2023-04-25T15:35:19;13.90;60.40
39493;DHT22;25176;51.060;3.720;2023-04-25T15:37:45;13.90;59.80
39493;DHT22;25176;51.060;3.720;2023-04-25T15:40:11;14.10;59.40
39493;DHT22;25176;51.060;3.720;2023-04-25T15:42:38;14.10;59.10
39493;DHT22;25176;51.060;3.720;2023-04-25T15:45:05;14.20;59.90
39493;DHT22;25176;51.060;3.720;2023-04-25T15:47:31;13.80;60.10
39493;DHT22;25176;51.060;3.720;2023-04-25T15:49:58;13.70;63.20
39493;DHT22;25176;51.060;3.720;2023-04-25T15:52:23;13.70;64.60
39493;DHT22;25176;51.060;3.720;2023-04-25T15:54:49;13.40;64.70
39493;DHT22;25176;51.060;3.720;2023-04-25T15:57:14;13.00;65.70
39493;DHT22;25176;51.060;3.720;2023-04-25T15:59:40;12.90;65.60
39493;DHT22;25176;51.060;3.720;2023-04-25T16:02:05;12.80;65.90
39493;DHT22;25176;51.060;3.720;2023-04-25T16:04:31;12.90;65.40
39493;DHT22;25176;51.060;3.720;2023-04-25T16:07:00;13.00;64.10
39493;DHT22;25176;51.060;3.720;2023-04-25T16:09:26;13.10;63.80
39493;DHT22;25176;51.060;3.720;2023-04-25T16:11:51;13.10;63.80
39493;DHT22;25176;51.060;3.720;2023-04-25T16:14:17;12.90;62.60
39493;DHT22;25176;51.060;3.720;2023-04-25T16:16:43;12.80;63.00